sensor_id;sensor_type;location;lat;lon;timestamp;P1;durP1;ratioP1;P2;durP2;ratioP2
39882;SDS011;55824;52.220;21.040;2022-12-18T00:02:19;8.70;;;6.97;;
39882;SDS011;55824;52.220;21.040;2022-12-18T00:04:46;7.78;;;6.25;;
39882;SDS011;55824;52.220;21.040;2022-12-18T00:07:12;8.82;;;7.32;;
39882;SDS011;55824;52.220;21.040;2022-12-18T00:09:38;8.50;;;7.00;;
39882;SDS011;55824;52.220;21.040;2022-12-18T00:12:04;8.13;;;6.70;;
39882;SDS011;55824;52.220;21.040;2022-12-18T00:14:30;8.25;;;6.95;;
39882;SDS011;55824;52.220;21.040;2022-12-18T00:16:56;8.48;;;6.88;;
39882;SDS011;55824;52.220;21.040;2022-12-18T00:19:25;9.37;;;7.33;;
39882;SDS011;55824;52.220;21.040;2022-12-18T00:21:51;8.50;;;6.85;;
39882;SDS011;55824;52.220;21.040;2022-12-18T00:24:17;8.23;;;6.30;;
39882;SDS011;55824;52.220;21.040;2022-12-18T00:26:43;9.18;;;7.45;;
39882;SDS011;55824;52.220;21.040;2022-12-18T00:29:10;9.15;;;7.28;;
39882;SDS011;55824;52.220;21.040;2022-12-18T00:31:38;8.03;;;6.43;;
39882;SDS011;55824;52.220;21.040;2022-12-18T00:34:04;9.25;;;7.47;;
39882;SDS011;55824;52.220;21.040;2022-12-18T00:36:31;8.75;;;7.20;;
39882;SDS011;55824;52.220;21.040;2022-12-18T00:38:58;9.32;;;7.07;;
39882;SDS011;55824;52.220;21.040;2022-12-18T00:41:25;9.68;;;7.55;;
39882;SDS011;55824;52.220;21.040;2022-12-18T00:44:11;7.78;;;6.15;;
39882;SDS011;55824;52.220;21.040;2022-12-18T00:46:37;8.77;;;6.85;;
39882;SDS011;55824;52.220;21.040;2022-12-18T00:49:03;9.40;;;6.65;;
39882;SDS011;55824;52.220;21.040;2022-12-18T00:51:30;8.27;;;6.88;;
39882;SDS011;55824;52.220;21.040;2022-12-18T00:53:56;8.18;;;6.72;;
39882;SDS011;55824;52.220;21.040;2022-12-18T00:56:22;10.60;;;7.05;;
39882;SDS011;55824;52.220;21.040;2022-12-18T00:58:48;8.43;;;6.88;;
39882;SDS011;55824;52.220;21.040;2022-12-18T01:01:14;8.27;;;6.35;;
39882;SDS011;55824;52.220;21.040;2022-12-18T01:03:40;10.55;;;7.20;;
39882;SDS011;55824;52.220;21.040;2022-12-18T01:06:07;8.90;;;6.88;;
39882;SDS011;55824;52.220;21.040;2022-12-18T01:08:33;8.23;;;6.60;;
39882;SDS011;55824;52.220;21.040;2022-12-18T01:10:59;8.25;;;7.28;;
39882;SDS011;55824;52.220;21.040;2022-12-18T01:13:26;8.45;;;7.22;;
39882;SDS011;55824;52.220;21.040;2022-12-18T01:15:52;7.95;;;6.43;;
39882;SDS011;55824;52.220;21.040;2022-12-18T01:18:18;9.13;;;7.05;;
39882;SDS011;55824;52.220;21.040;2022-12-18T01:20:44;9.73;;;6.88;;
39882;SDS011;55824;52.220;21.040;2022-12-18T01:23:10;9.05;;;7.20;;
39882;SDS011;55824;52.220;21.040;2022-12-18T01:25:36;8.68;;;7.07;;
39882;SDS011;55824;52.220;21.040;2022-12-18T01:28:02;9.07;;;7.13;;
39882;SDS011;55824;52.220;21.040;2022-12-18T01:30:28;8.75;;;6.78;;
39882;SDS011;55824;52.220;21.040;2022-12-18T01:32:54;9.38;;;7.20;;
39882;SDS011;55824;52.220;21.040;2022-12-18T01:35:20;9.32;;;7.53;;
39882;SDS011;55824;52.220;21.040;2022-12-18T01:37:46;8.70;;;6.95;;
39882;SDS011;55824;52.220;21.040;2022-12-18T01:40:12;8.90;;;6.63;;
39882;SDS011;55824;52.220;21.040;2022-12-18T01:42:38;8.85;;;6.60;;
39882;SDS011;55824;52.220;21.040;2022-12-18T01:52:34;9.00;;;6.82;;
39882;SDS011;55824;52.220;21.040;2022-12-18T01:55:02;8.05;;;6.35;;
39882;SDS011;55824;52.220;21.040;2022-12-18T01:57:28;8.30;;;6.45;;
39882;SDS011;55824;52.220;21.040;2022-12-18T01:59:57;8.57;;;6.55;;
39882;SDS011;55824;52.220;21.040;2022-12-18T02:02:24;9.73;;;7.38;;
39882;SDS011;55824;52.220;21.040;2022-12-18T02:04:52;8.85;;;7.18;;
39882;SDS011;55824;52.220;21.040;2022-12-18T02:10:07;9.10;;;7.13;;
39882;SDS011;55824;52.220;21.040;2022-12-18T02:12:51;8.05;;;6.90;;
39882;SDS011;55824;52.220;21.040;2022-12-18T02:15:21;9.02;;;7.00;;
39882;SDS011;55824;52.220;21.040;2022-12-18T02:28:31;9.98;;;7.53;;
39882;SDS011;55824;52.220;21.040;2022-12-18T02:30:59;9.70;;;7.00;;
39882;SDS011;55824;52.220;21.040;2022-12-18T02:33:27;8.27;;;6.82;;
39882;SDS011;55824;52.220;21.040;2022-12-18T02:35:55;8.27;;;6.63;;
39882;SDS011;55824;52.220;21.040;2022-12-18T02:38:23;8.90;;;7.05;;
39882;SDS011;55824;52.220;21.040;2022-12-18T02:40:50;9.50;;;7.47;;
39882;SDS011;55824;52.220;21.040;2022-12-18T02:43:17;9.48;;;6.45;;
39882;SDS011;55824;52.220;21.040;2022-12-18T02:45:47;8.25;;;6.60;;
39882;SDS011;55824;52.220;21.040;2022-12-18T02:48:13;9.20;;;7.40;;
39882;SDS011;55824;52.220;21.040;2022-12-18T02:50:41;8.60;;;7.10;;
39882;SDS011;55824;52.220;21.040;2022-12-18T02:53:24;8.88;;;6.40;;
39882;SDS011;55824;52.220;21.040;2022-12-18T02:56:03;7.88;;;6.50;;
39882;SDS011;55824;52.220;21.040;2022-12-18T03:03:45;8.15;;;6.45;;
39882;SDS011;55824;52.220;21.040;2022-12-18T03:06:13;9.00;;;6.78;;
39882;SDS011;55824;52.220;21.040;2022-12-18T03:08:45;8.73;;;6.80;;
39882;SDS011;55824;52.220;21.040;2022-12-18T03:11:12;9.63;;;7.68;;
39882;SDS011;55824;52.220;21.040;2022-12-18T03:13:46;8.48;;;6.75;;
39882;SDS011;55824;52.220;21.040;2022-12-18T03:16:16;10.50;;;6.90;;
39882;SDS011;55824;52.220;21.040;2022-12-18T03:18:51;8.70;;;7.18;;
39882;SDS011;55824;52.220;21.040;2022-12-18T03:21:20;8.45;;;6.00;;
39882;SDS011;55824;52.220;21.040;2022-12-18T03:23:48;11.55;;;6.68;;
39882;SDS011;55824;52.220;21.040;2022-12-18T03:26:16;9.52;;;7.20;;
39882;SDS011;55824;52.220;21.040;2022-12-18T03:28:47;8.20;;;6.47;;
39882;SDS011;55824;52.220;21.040;2022-12-18T03:31:14;8.05;;;6.80;;
39882;SDS011;55824;52.220;21.040;2022-12-18T03:33:42;8.82;;;7.63;;
39882;SDS011;55824;52.220;21.040;2022-12-18T03:36:11;8.77;;;7.15;;
39882;SDS011;55824;52.220;21.040;2022-12-18T03:38:37;9.02;;;6.85;;
39882;SDS011;55824;52.220;21.040;2022-12-18T03:48:48;8.52;;;6.90;;
39882;SDS011;55824;52.220;21.040;2022-12-18T03:53:47;9.65;;;6.43;;
39882;SDS011;55824;52.220;21.040;2022-12-18T03:56:16;7.22;;;5.60;;
39882;SDS011;55824;52.220;21.040;2022-12-18T03:58:42;7.50;;;6.13;;
39882;SDS011;55824;52.220;21.040;2022-12-18T04:01:09;8.93;;;6.30;;
39882;SDS011;55824;52.220;21.040;2022-12-18T04:03:38;7.50;;;6.43;;
39882;SDS011;55824;52.220;21.040;2022-12-18T04:06:04;8.10;;;6.57;;
39882;SDS011;55824;52.220;21.040;2022-12-18T04:08:31;8.63;;;6.40;;
39882;SDS011;55824;52.220;21.040;2022-12-18T04:10:57;8.35;;;6.38;;
39882;SDS011;55824;52.220;21.040;2022-12-18T04:13:24;7.78;;;6.25;;
39882;SDS011;55824;52.220;21.040;2022-12-18T04:15:50;9.18;;;6.82;;
39882;SDS011;55824;52.220;21.040;2022-12-18T04:18:16;8.65;;;6.22;;
39882;SDS011;55824;52.220;21.040;2022-12-18T04:20:42;9.10;;;6.45;;
39882;SDS011;55824;52.220;21.040;2022-12-18T04:23:08;8.50;;;6.13;;
39882;SDS011;55824;52.220;21.040;2022-12-18T04:25:34;7.35;;;6.03;;
39882;SDS011;55824;52.220;21.040;2022-12-18T04:28:00;7.70;;;6.43;;
39882;SDS011;55824;52.220;21.040;2022-12-18T04:30:26;8.55;;;6.80;;
39882;SDS011;55824;52.220;21.040;2022-12-18T04:32:52;7.90;;;6.22;;
39882;SDS011;55824;52.220;21.040;2022-12-18T04:35:19;7.25;;;5.65;;
39882;SDS011;55824;52.220;21.040;2022-12-18T04:37:45;7.57;;;5.57;;
39882;SDS011;55824;52.220;21.040;2022-12-18T04:40:11;7.90;;;5.75;;
39882;SDS011;55824;52.220;21.040;2022-12-18T04:42:38;7.05;;;5.68;;
39882;SDS011;55824;52.220;21.040;2022-12-18T04:45:05;8.55;;;6.18;;
39882;SDS011;55824;52.220;21.040;2022-12-18T04:47:31;7.50;;;6.10;;
39882;SDS011;55824;52.220;21.040;2022-12-18T04:49:57;8.20;;;6.22;;
39882;SDS011;55824;52.220;21.040;2022-12-18T04:52:23;8.00;;;6.22;;
39882;SDS011;55824;52.220;21.040;2022-12-18T04:54:49;8.13;;;6.03;;
39882;SDS011;55824;52.220;21.040;2022-12-18T04:57:16;8.57;;;6.28;;
39882;SDS011;55824;52.220;21.040;2022-12-18T04:59:43;7.13;;;5.75;;
39882;SDS011;55824;52.220;21.040;2022-12-18T05:02:09;7.03;;;6.05;;
39882;SDS011;55824;52.220;21.040;2022-12-18T05:04:35;8.02;;;5.85;;
39882;SDS011;55824;52.220;21.040;2022-12-18T05:07:01;7.18;;;5.95;;
39882;SDS011;55824;52.220;21.040;2022-12-18T05:09:27;8.55;;;5.93;;
39882;SDS011;55824;52.220;21.040;2022-12-18T05:11:53;7.80;;;5.75;;
39882;SDS011;55824;52.220;21.040;2022-12-18T05:14:19;8.93;;;6.25;;
39882;SDS011;55824;52.220;21.040;2022-12-18T05:16:45;7.00;;;6.13;;
39882;SDS011;55824;52.220;21.040;2022-12-18T05:19:11;8.60;;;6.00;;
39882;SDS011;55824;52.220;21.040;2022-12-18T05:21:37;7.45;;;5.80;;
39882;SDS011;55824;52.220;21.040;2022-12-18T05:24:03;7.80;;;6.20;;
39882;SDS011;55824;52.220;21.040;2022-12-18T05:26:30;8.00;;;6.40;;
39882;SDS011;55824;52.220;21.040;2022-12-18T05:28:56;8.68;;;5.95;;
39882;SDS011;55824;52.220;21.040;2022-12-18T05:31:22;7.60;;;6.05;;
39882;SDS011;55824;52.220;21.040;2022-12-18T05:33:48;8.60;;;6.32;;
39882;SDS011;55824;52.220;21.040;2022-12-18T05:36:14;8.18;;;6.65;;
39882;SDS011;55824;52.220;21.040;2022-12-18T05:38:40;7.82;;;5.95;;
39882;SDS011;55824;52.220;21.040;2022-12-18T05:41:06;8.70;;;6.95;;
39882;SDS011;55824;52.220;21.040;2022-12-18T05:43:36;8.43;;;6.20;;
39882;SDS011;55824;52.220;21.040;2022-12-18T05:46:04;9.65;;;6.40;;
39882;SDS011;55824;52.220;21.040;2022-12-18T05:48:30;8.05;;;6.18;;
39882;SDS011;55824;52.220;21.040;2022-12-18T05:50:56;7.30;;;5.80;;
39882;SDS011;55824;52.220;21.040;2022-12-18T05:53:28;8.05;;;5.93;;
39882;SDS011;55824;52.220;21.040;2022-12-18T05:55:59;8.23;;;6.38;;
39882;SDS011;55824;52.220;21.040;2022-12-18T05:58:25;7.72;;;6.18;;
39882;SDS011;55824;52.220;21.040;2022-12-18T06:00:51;9.75;;;6.43;;
39882;SDS011;55824;52.220;21.040;2022-12-18T06:03:17;8.48;;;6.00;;
39882;SDS011;55824;52.220;21.040;2022-12-18T06:05:44;7.95;;;6.30;;
39882;SDS011;55824;52.220;21.040;2022-12-18T06:08:10;8.80;;;6.60;;
39882;SDS011;55824;52.220;21.040;2022-12-18T06:10:37;6.88;;;5.63;;
39882;SDS011;55824;52.220;21.040;2022-12-18T06:13:03;8.40;;;6.20;;
39882;SDS011;55824;52.220;21.040;2022-12-18T06:15:29;9.48;;;6.75;;
39882;SDS011;55824;52.220;21.040;2022-12-18T06:17:55;8.98;;;6.65;;
39882;SDS011;55824;52.220;21.040;2022-12-18T06:20:21;9.43;;;7.07;;
39882;SDS011;55824;52.220;21.040;2022-12-18T06:22:47;9.27;;;7.45;;
39882;SDS011;55824;52.220;21.040;2022-12-18T06:25:13;9.82;;;8.27;;
39882;SDS011;55824;52.220;21.040;2022-12-18T06:27:39;9.48;;;7.45;;
39882;SDS011;55824;52.220;21.040;2022-12-18T06:30:06;8.63;;;6.90;;
39882;SDS011;55824;52.220;21.040;2022-12-18T06:32:32;9.50;;;7.30;;
39882;SDS011;55824;52.220;21.040;2022-12-18T06:34:58;8.63;;;6.97;;
39882;SDS011;55824;52.220;21.040;2022-12-18T06:37:24;9.18;;;7.57;;
39882;SDS011;55824;52.220;21.040;2022-12-18T06:39:51;9.60;;;7.18;;
39882;SDS011;55824;52.220;21.040;2022-12-18T06:42:17;10.98;;;7.85;;
39882;SDS011;55824;52.220;21.040;2022-12-18T06:44:43;10.50;;;8.02;;
39882;SDS011;55824;52.220;21.040;2022-12-18T06:47:09;11.60;;;8.57;;
39882;SDS011;55824;52.220;21.040;2022-12-18T06:49:35;10.40;;;8.35;;
39882;SDS011;55824;52.220;21.040;2022-12-18T06:52:01;11.27;;;8.68;;
39882;SDS011;55824;52.220;21.040;2022-12-18T06:54:27;10.57;;;8.27;;
39882;SDS011;55824;52.220;21.040;2022-12-18T06:56:53;12.10;;;8.70;;
39882;SDS011;55824;52.220;21.040;2022-12-18T06:59:19;12.93;;;9.25;;
39882;SDS011;55824;52.220;21.040;2022-12-18T07:01:45;10.70;;;8.70;;
39882;SDS011;55824;52.220;21.040;2022-12-18T07:04:11;14.70;;;8.48;;
39882;SDS011;55824;52.220;21.040;2022-12-18T07:06:37;11.55;;;7.68;;
39882;SDS011;55824;52.220;21.040;2022-12-18T07:09:03;12.90;;;8.60;;
39882;SDS011;55824;52.220;21.040;2022-12-18T07:11:29;13.18;;;8.82;;
39882;SDS011;55824;52.220;21.040;2022-12-18T07:13:57;10.95;;;8.63;;
39882;SDS011;55824;52.220;21.040;2022-12-18T07:16:23;9.93;;;7.93;;
39882;SDS011;55824;52.220;21.040;2022-12-18T07:18:49;9.75;;;7.80;;
39882;SDS011;55824;52.220;21.040;2022-12-18T07:21:16;10.68;;;7.93;;
39882;SDS011;55824;52.220;21.040;2022-12-18T07:23:43;10.90;;;8.32;;
39882;SDS011;55824;52.220;21.040;2022-12-18T07:26:12;10.60;;;8.18;;
39882;SDS011;55824;52.220;21.040;2022-12-18T07:28:39;11.07;;;8.75;;
39882;SDS011;55824;52.220;21.040;2022-12-18T07:31:08;11.18;;;8.18;;
39882;SDS011;55824;52.220;21.040;2022-12-18T07:33:34;11.63;;;8.55;;
39882;SDS011;55824;52.220;21.040;2022-12-18T07:36:00;11.65;;;8.50;;
39882;SDS011;55824;52.220;21.040;2022-12-18T07:38:28;11.30;;;8.82;;
39882;SDS011;55824;52.220;21.040;2022-12-18T07:40:54;11.38;;;9.32;;
39882;SDS011;55824;52.220;21.040;2022-12-18T07:43:20;11.18;;;8.35;;
39882;SDS011;55824;52.220;21.040;2022-12-18T07:45:48;13.00;;;9.93;;
39882;SDS011;55824;52.220;21.040;2022-12-18T07:48:15;11.73;;;8.98;;
39882;SDS011;55824;52.220;21.040;2022-12-18T07:50:41;11.73;;;8.55;;
39882;SDS011;55824;52.220;21.040;2022-12-18T07:53:07;13.05;;;8.43;;
39882;SDS011;55824;52.220;21.040;2022-12-18T07:55:33;12.50;;;10.02;;
39882;SDS011;55824;52.220;21.040;2022-12-18T07:58:01;111.32;;;100.22;;
39882;SDS011;55824;52.220;21.040;2022-12-18T08:00:27;595.35;;;533.90;;
39882;SDS011;55824;52.220;21.040;2022-12-18T08:02:53;314.25;;;283.50;;
39882;SDS011;55824;52.220;21.040;2022-12-18T08:05:19;216.73;;;195.13;;
39882;SDS011;55824;52.220;21.040;2022-12-18T08:07:46;195.73;;;175.25;;
39882;SDS011;55824;52.220;21.040;2022-12-18T08:10:12;204.45;;;183.68;;
39882;SDS011;55824;52.220;21.040;2022-12-18T08:12:38;195.10;;;175.32;;
39882;SDS011;55824;52.220;21.040;2022-12-18T08:15:04;184.00;;;165.10;;
39882;SDS011;55824;52.220;21.040;2022-12-18T08:17:30;189.27;;;169.80;;
39882;SDS011;55824;52.220;21.040;2022-12-18T08:19:56;184.20;;;165.18;;
39882;SDS011;55824;52.220;21.040;2022-12-18T08:22:22;179.45;;;160.68;;
39882;SDS011;55824;52.220;21.040;2022-12-18T08:24:48;166.32;;;149.20;;
39882;SDS011;55824;52.220;21.040;2022-12-18T08:27:14;160.85;;;144.20;;
39882;SDS011;55824;52.220;21.040;2022-12-18T08:29:40;155.95;;;139.50;;
39882;SDS011;55824;52.220;21.040;2022-12-18T08:32:06;155.80;;;139.60;;
39882;SDS011;55824;52.220;21.040;2022-12-18T08:34:33;153.23;;;137.32;;
39882;SDS011;55824;52.220;21.040;2022-12-18T08:36:59;154.20;;;138.10;;
39882;SDS011;55824;52.220;21.040;2022-12-18T08:39:25;150.38;;;134.40;;
39882;SDS011;55824;52.220;21.040;2022-12-18T08:41:51;142.90;;;128.07;;
39882;SDS011;55824;52.220;21.040;2022-12-18T08:44:36;146.48;;;131.25;;
39882;SDS011;55824;52.220;21.040;2022-12-18T08:47:05;143.68;;;129.00;;
39882;SDS011;55824;52.220;21.040;2022-12-18T08:49:32;141.20;;;126.65;;
39882;SDS011;55824;52.220;21.040;2022-12-18T08:51:58;131.38;;;117.60;;
39882;SDS011;55824;52.220;21.040;2022-12-18T08:54:24;133.80;;;120.05;;
39882;SDS011;55824;52.220;21.040;2022-12-18T08:56:50;129.13;;;115.97;;
39882;SDS011;55824;52.220;21.040;2022-12-18T08:59:16;128.13;;;114.88;;
39882;SDS011;55824;52.220;21.040;2022-12-18T09:01:42;127.20;;;113.82;;
39882;SDS011;55824;52.220;21.040;2022-12-18T09:04:09;126.68;;;112.72;;
39882;SDS011;55824;52.220;21.040;2022-12-18T09:06:35;116.35;;;103.85;;
39882;SDS011;55824;52.220;21.040;2022-12-18T09:09:02;118.30;;;105.25;;
39882;SDS011;55824;52.220;21.040;2022-12-18T09:11:28;121.30;;;107.80;;
39882;SDS011;55824;52.220;21.040;2022-12-18T09:13:54;117.40;;;104.38;;
39882;SDS011;55824;52.220;21.040;2022-12-18T09:16:21;110.10;;;98.22;;
39882;SDS011;55824;52.220;21.040;2022-12-18T09:18:47;106.88;;;95.25;;
39882;SDS011;55824;52.220;21.040;2022-12-18T09:21:14;103.53;;;91.95;;
39882;SDS011;55824;52.220;21.040;2022-12-18T09:23:41;102.50;;;91.47;;
39882;SDS011;55824;52.220;21.040;2022-12-18T09:26:07;95.65;;;85.38;;
39882;SDS011;55824;52.220;21.040;2022-12-18T09:28:33;94.05;;;84.13;;
39882;SDS011;55824;52.220;21.040;2022-12-18T09:31:03;91.00;;;81.13;;
39882;SDS011;55824;52.220;21.040;2022-12-18T09:33:29;86.53;;;77.10;;
39882;SDS011;55824;52.220;21.040;2022-12-18T09:35:55;85.03;;;75.80;;
39882;SDS011;55824;52.220;21.040;2022-12-18T09:38:21;79.55;;;70.88;;
39882;SDS011;55824;52.220;21.040;2022-12-18T09:40:50;79.80;;;68.32;;
39882;SDS011;55824;52.220;21.040;2022-12-18T09:45:44;72.05;;;64.45;;
39882;SDS011;55824;52.220;21.040;2022-12-18T09:48:19;71.50;;;62.00;;
39882;SDS011;55824;52.220;21.040;2022-12-18T09:50:47;69.32;;;62.00;;
39882;SDS011;55824;52.220;21.040;2022-12-18T09:53:19;70.25;;;60.45;;
39882;SDS011;55824;52.220;21.040;2022-12-18T09:55:46;66.57;;;58.38;;
39882;SDS011;55824;52.220;21.040;2022-12-18T10:00:47;63.65;;;56.85;;
39882;SDS011;55824;52.220;21.040;2022-12-18T10:03:14;60.72;;;54.05;;
39882;SDS011;55824;52.220;21.040;2022-12-18T10:08:16;61.92;;;53.97;;
39882;SDS011;55824;52.220;21.040;2022-12-18T10:10:51;57.58;;;51.05;;
39882;SDS011;55824;52.220;21.040;2022-12-18T10:18:36;54.83;;;48.90;;
39882;SDS011;55824;52.220;21.040;2022-12-18T10:21:11;55.47;;;49.47;;
39882;SDS011;55824;52.220;21.040;2022-12-18T10:23:55;53.05;;;47.20;;
39882;SDS011;55824;52.220;21.040;2022-12-18T10:26:22;54.80;;;46.92;;
39882;SDS011;55824;52.220;21.040;2022-12-18T10:28:49;45.53;;;36.53;;
39882;SDS011;55824;52.220;21.040;2022-12-18T10:31:18;48.05;;;36.78;;
39882;SDS011;55824;52.220;21.040;2022-12-18T10:33:44;44.90;;;38.25;;
39882;SDS011;55824;52.220;21.040;2022-12-18T10:36:10;43.38;;;37.33;;
39882;SDS011;55824;52.220;21.040;2022-12-18T10:38:37;44.03;;;37.60;;
39882;SDS011;55824;52.220;21.040;2022-12-18T10:43:45;41.83;;;36.00;;
39882;SDS011;55824;52.220;21.040;2022-12-18T10:46:19;38.28;;;34.17;;
39882;SDS011;55824;52.220;21.040;2022-12-18T10:51:16;38.15;;;33.08;;
39882;SDS011;55824;52.220;21.040;2022-12-18T10:53:50;41.63;;;34.00;;
39882;SDS011;55824;52.220;21.040;2022-12-18T10:56:19;35.90;;;31.85;;
39882;SDS011;55824;52.220;21.040;2022-12-18T10:58:46;39.28;;;32.38;;
39882;SDS011;55824;52.220;21.040;2022-12-18T11:01:20;37.33;;;32.03;;
39882;SDS011;55824;52.220;21.040;2022-12-18T11:03:58;38.10;;;31.85;;
39882;SDS011;55824;52.220;21.040;2022-12-18T11:06:24;33.85;;;30.25;;
39882;SDS011;55824;52.220;21.040;2022-12-18T11:09:04;37.90;;;31.60;;
39882;SDS011;55824;52.220;21.040;2022-12-18T11:11:30;40.65;;;32.25;;
39882;SDS011;55824;52.220;21.040;2022-12-18T11:16:23;35.42;;;29.98;;
39882;SDS011;55824;52.220;21.040;2022-12-18T11:18:49;37.58;;;30.20;;
39882;SDS011;55824;52.220;21.040;2022-12-18T11:21:15;36.08;;;29.77;;
39882;SDS011;55824;52.220;21.040;2022-12-18T11:23:51;37.45;;;31.13;;
39882;SDS011;55824;52.220;21.040;2022-12-18T11:26:17;37.22;;;28.75;;
39882;SDS011;55824;52.220;21.040;2022-12-18T11:28:46;35.15;;;29.55;;
39882;SDS011;55824;52.220;21.040;2022-12-18T11:31:25;36.05;;;28.50;;
39882;SDS011;55824;52.220;21.040;2022-12-18T11:36:28;36.60;;;29.65;;
39882;SDS011;55824;52.220;21.040;2022-12-18T11:38:56;35.53;;;26.83;;
39882;SDS011;55824;52.220;21.040;2022-12-18T11:41:29;31.67;;;27.80;;
39882;SDS011;55824;52.220;21.040;2022-12-18T11:44:16;33.15;;;26.63;;
39882;SDS011;55824;52.220;21.040;2022-12-18T11:46:52;33.00;;;26.95;;
39882;SDS011;55824;52.220;21.040;2022-12-18T11:49:25;38.33;;;27.42;;
39882;SDS011;55824;52.220;21.040;2022-12-18T11:51:57;29.67;;;26.42;;
39882;SDS011;55824;52.220;21.040;2022-12-18T11:54:25;31.38;;;24.60;;
39882;SDS011;55824;52.220;21.040;2022-12-18T11:56:53;29.98;;;24.27;;
39882;SDS011;55824;52.220;21.040;2022-12-18T12:02:00;30.73;;;25.52;;
39882;SDS011;55824;52.220;21.040;2022-12-18T12:17:37;27.30;;;22.85;;
39882;SDS011;55824;52.220;21.040;2022-12-18T12:20:11;25.67;;;22.42;;
39882;SDS011;55824;52.220;21.040;2022-12-18T12:35:12;23.77;;;20.88;;
39882;SDS011;55824;52.220;21.040;2022-12-18T12:37:49;24.65;;;20.90;;
39882;SDS011;55824;52.220;21.040;2022-12-18T12:40:20;25.05;;;21.35;;
39882;SDS011;55824;52.220;21.040;2022-12-18T12:48:21;24.30;;;21.02;;
39882;SDS011;55824;52.220;21.040;2022-12-18T12:50:49;25.00;;;19.40;;
39882;SDS011;55824;52.220;21.040;2022-12-18T12:53:37;23.92;;;20.17;;
39882;SDS011;55824;52.220;21.040;2022-12-18T12:56:02;21.83;;;18.52;;
39882;SDS011;55824;52.220;21.040;2022-12-18T12:58:34;21.30;;;18.75;;
39882;SDS011;55824;52.220;21.040;2022-12-18T13:03:45;22.73;;;19.70;;
39882;SDS011;55824;52.220;21.040;2022-12-18T13:08:57;24.15;;;20.48;;
39882;SDS011;55824;52.220;21.040;2022-12-18T13:11:43;22.52;;;19.23;;
39882;SDS011;55824;52.220;21.040;2022-12-18T13:14:37;21.67;;;19.38;;
39882;SDS011;55824;52.220;21.040;2022-12-18T13:17:17;21.75;;;19.17;;
39882;SDS011;55824;52.220;21.040;2022-12-18T13:22:23;21.02;;;18.52;;
39882;SDS011;55824;52.220;21.040;2022-12-18T13:24:50;23.23;;;19.35;;
39882;SDS011;55824;52.220;21.040;2022-12-18T13:30:01;21.50;;;18.38;;
39882;SDS011;55824;52.220;21.040;2022-12-18T13:32:26;20.15;;;17.98;;
39882;SDS011;55824;52.220;21.040;2022-12-18T13:37:41;20.98;;;17.42;;
39882;SDS011;55824;52.220;21.040;2022-12-18T13:48:25;20.40;;;16.65;;
39882;SDS011;55824;52.220;21.040;2022-12-18T13:50:53;20.08;;;17.55;;
39882;SDS011;55824;52.220;21.040;2022-12-18T13:53:24;20.25;;;16.77;;
39882;SDS011;55824;52.220;21.040;2022-12-18T13:55:51;19.65;;;16.60;;
39882;SDS011;55824;52.220;21.040;2022-12-18T13:58:17;20.33;;;17.15;;
39882;SDS011;55824;52.220;21.040;2022-12-18T14:00:43;18.75;;;16.73;;
39882;SDS011;55824;52.220;21.040;2022-12-18T14:03:17;17.80;;;15.80;;
39882;SDS011;55824;52.220;21.040;2022-12-18T14:05:44;20.60;;;17.67;;
39882;SDS011;55824;52.220;21.040;2022-12-18T14:08:12;19.60;;;17.42;;
39882;SDS011;55824;52.220;21.040;2022-12-18T14:10:42;19.73;;;17.25;;
39882;SDS011;55824;52.220;21.040;2022-12-18T14:13:09;20.23;;;17.15;;
39882;SDS011;55824;52.220;21.040;2022-12-18T14:15:39;18.40;;;16.33;;
39882;SDS011;55824;52.220;21.040;2022-12-18T14:20:35;18.42;;;15.23;;
39882;SDS011;55824;52.220;21.040;2022-12-18T14:23:01;18.77;;;16.05;;
39882;SDS011;55824;52.220;21.040;2022-12-18T14:25:27;18.25;;;15.85;;
39882;SDS011;55824;52.220;21.040;2022-12-18T14:30:35;17.88;;;16.08;;
39882;SDS011;55824;52.220;21.040;2022-12-18T14:35:37;20.13;;;16.58;;
39882;SDS011;55824;52.220;21.040;2022-12-18T14:40:52;17.95;;;16.05;;
39882;SDS011;55824;52.220;21.040;2022-12-18T14:43:19;16.85;;;15.05;;
39882;SDS011;55824;52.220;21.040;2022-12-18T14:45:45;16.25;;;14.50;;
39882;SDS011;55824;52.220;21.040;2022-12-18T14:50:37;16.90;;;14.18;;
39882;SDS011;55824;52.220;21.040;2022-12-18T14:53:03;17.05;;;14.68;;
39882;SDS011;55824;52.220;21.040;2022-12-18T14:55:34;17.45;;;15.00;;
39882;SDS011;55824;52.220;21.040;2022-12-18T14:58:00;16.75;;;14.98;;
39882;SDS011;55824;52.220;21.040;2022-12-18T15:00:27;18.83;;;15.35;;
39882;SDS011;55824;52.220;21.040;2022-12-18T15:02:54;18.17;;;15.55;;
39882;SDS011;55824;52.220;21.040;2022-12-18T15:05:25;16.80;;;14.80;;
39882;SDS011;55824;52.220;21.040;2022-12-18T15:07:52;16.73;;;14.65;;
39882;SDS011;55824;52.220;21.040;2022-12-18T15:10:20;16.80;;;14.48;;
39882;SDS011;55824;52.220;21.040;2022-12-18T15:12:48;17.17;;;15.10;;
39882;SDS011;55824;52.220;21.040;2022-12-18T15:18:04;16.73;;;14.25;;
39882;SDS011;55824;52.220;21.040;2022-12-18T15:20:40;16.17;;;14.02;;
39882;SDS011;55824;52.220;21.040;2022-12-18T15:23:17;17.35;;;15.30;;
39882;SDS011;55824;52.220;21.040;2022-12-18T15:25:44;15.70;;;13.88;;
39882;SDS011;55824;52.220;21.040;2022-12-18T15:28:19;16.58;;;14.05;;
39882;SDS011;55824;52.220;21.040;2022-12-18T15:30:58;16.33;;;14.52;;
39882;SDS011;55824;52.220;21.040;2022-12-18T15:33:25;15.90;;;14.20;;
39882;SDS011;55824;52.220;21.040;2022-12-18T15:35:55;16.33;;;14.10;;
39882;SDS011;55824;52.220;21.040;2022-12-18T15:38:22;16.55;;;14.05;;
39882;SDS011;55824;52.220;21.040;2022-12-18T15:40:48;15.38;;;13.55;;
39882;SDS011;55824;52.220;21.040;2022-12-18T15:43:13;15.68;;;13.95;;
39882;SDS011;55824;52.220;21.040;2022-12-18T15:45:59;16.35;;;13.80;;
39882;SDS011;55824;52.220;21.040;2022-12-18T15:48:25;15.70;;;14.05;;
39882;SDS011;55824;52.220;21.040;2022-12-18T15:50:51;14.52;;;13.02;;
39882;SDS011;55824;52.220;21.040;2022-12-18T15:53:18;15.30;;;13.68;;
39882;SDS011;55824;52.220;21.040;2022-12-18T15:55:44;15.23;;;13.63;;
39882;SDS011;55824;52.220;21.040;2022-12-18T15:58:29;15.80;;;14.07;;
39882;SDS011;55824;52.220;21.040;2022-12-18T16:00:55;16.67;;;14.32;;
39882;SDS011;55824;52.220;21.040;2022-12-18T16:03:21;15.80;;;13.13;;
39882;SDS011;55824;52.220;21.040;2022-12-18T16:05:47;14.98;;;13.15;;
39882;SDS011;55824;52.220;21.040;2022-12-18T16:08:13;16.45;;;13.93;;
39882;SDS011;55824;52.220;21.040;2022-12-18T16:10:39;15.63;;;13.23;;
39882;SDS011;55824;52.220;21.040;2022-12-18T16:13:07;15.65;;;13.77;;
39882;SDS011;55824;52.220;21.040;2022-12-18T16:15:34;15.77;;;14.07;;
39882;SDS011;55824;52.220;21.040;2022-12-18T16:18:01;15.50;;;13.88;;
39882;SDS011;55824;52.220;21.040;2022-12-18T16:20:26;14.85;;;12.90;;
39882;SDS011;55824;52.220;21.040;2022-12-18T16:22:52;15.60;;;14.00;;
39882;SDS011;55824;52.220;21.040;2022-12-18T16:25:19;15.60;;;13.45;;
39882;SDS011;55824;52.220;21.040;2022-12-18T16:27:46;16.88;;;13.25;;
39882;SDS011;55824;52.220;21.040;2022-12-18T16:30:13;15.35;;;12.85;;
39882;SDS011;55824;52.220;21.040;2022-12-18T16:32:39;14.75;;;13.13;;
39882;SDS011;55824;52.220;21.040;2022-12-18T16:35:05;14.13;;;12.63;;